Hubly, Illinois
Current Conditions -  °F | °C
As of 4:52 PM on Saturday 20 Dec 2014 (Local Time) from KSPI Reporting Station
Overcast Overcast  
Wind Chill: 32°   Ceiling: 3100
Heat Index: 38°   Visibility: 10mi
Dew Point: 31°   Wind: 8mph
Humidity: 76%   Direction: 130°SE
Pressure: 30.24"   Gusts: NA
Location:  40.0814°N, 89.6743°W
Report Text: KSPI 202252Z 13007KT 10SM OVC031 03/M01 A3024 RMK AO2 SLP245 T00331006
Loading
Personal Weather Stations






























Interactive Weather Map New forecast layout! Learn more

10-Day Weather Forecast

Advertisements
Track Severe Weather on mobile